This is the latest recevied weather packets stored in our database for station/object VK4CWL-13. If no packets are shown the sender has not sent any weather packets the latest 10 day(s).
| Time | Temp. | Humidity | Pressure | Rain* | Wind** | Luminosity | Snow |
|---|---|---|---|---|---|---|---|
| 1788386927 | 17.78° C | 63% | 1023.6 hPa | 0 mm | - | - | - |
| 1788386619 | 17.22° C | 65% | 1023.6 hPa | 0 mm | - | - | - |
| 1788386317 | 16.67° C | 65% | 1023.6 hPa | 0 mm | - | - | - |
| 1788386015 | 16.67° C | 68% | 1023.7 hPa | 0 mm | - | - | - |
| 1788385713 | 16.11° C | 70% | 1023.6 hPa | 0 mm | - | - | - |
| 1788385412 | 15.56° C | 72% | 1023.6 hPa | 0 mm | - | - | - |
| 1788385110 | 15° C | 73% | 1023.8 hPa | 0 mm | - | - | - |
| 1788384805 | 14.44° C | 75% | 1023.6 hPa | 0 mm | - | - | - |
| 1788384503 | 13.89° C | 76% | 1023.5 hPa | 0 mm | - | - | - |
| 1788384204 | 13.33° C | 77% | 1023.6 hPa | 0 mm | - | - | - |
| 1788383898 | 13.33° C | 78% | 1023.6 hPa | 0 mm | - | - | - |
| 1788383600 | 12.78° C | 79% | 1023.6 hPa | 0 mm | - | - | - |
| 1788383294 | 12.22° C | 80% | 1023.6 hPa | 0 mm | - | - | - |
| 1788382995 | 11.67° C | 81% | 1023.5 hPa | 0 mm | - | - | - |
| 1788382690 | 11.11° C | 82% | 1023.7 hPa | 0 mm | - | - | - |
| 1788382387 | 10.56° C | 83% | 1023.5 hPa | 0 mm | - | - | - |
| 1788382085 | 10.56° C | 83% | 1023.5 hPa | 0 mm | - | - | - |
| 1788381782 | 10° C | 80% | 1023.3 hPa | 0 mm | - | - | - |
| 1788381480 | 10° C | 83% | 1023.3 hPa | 0 mm | - | - | - |
| 1788381178 | 9.44° C | 81% | 1023.1 hPa | 0 mm | - | - | - |
| 1788380875 | 9.44° C | 81% | 1023.1 hPa | 0 mm | - | - | - |
| 1788380573 | 9.44° C | 83% | 1023.2 hPa | 0 mm | - | - | - |
| 1788380271 | 9.44° C | 80% | 1023 hPa | 0 mm | - | - | - |
| 1788379969 | 9.44° C | 80% | 1022.9 hPa | 0 mm | - | - | - |
| 1788379667 | 9.44° C | 80% | 1022.8 hPa | 0 mm | - | - | - |
* Rain since midnight (hover to see other rain measurements)
** Current wind speed in m/s (hover to see current wind gust speed)